Flight Track Log - Related Links

Times and Time Zones

All times are in EDT time to prevent confusion due to time zone crossing. See the SWA127 flight status page for this flight to view local times or setup timezone preferences in your user account.

Time Position Orientation Groundspeed Altitude Reporting Facility
EDT Latitude Longitude Course Direction KTS MPH feet Rate Location/Type
11:42AM 29.6519 -95.2872 47° Northeast 147 169 800  Level Houston Center
11:43AM 29.6714 -95.2631 47° Northeast 230 265 2,700 2,288 Climbing Houston Center
11:44AM 29.6153 -95.2233 148° Southeast 268 308 5,300 3,216 Climbing Houston Center
11:45AM 29.5242 -95.2214 179° South 280 322 9,400 3,552 Climbing Houston Center
11:46AM 29.4494 -95.2297 186° South 271 312 12,700 3,194 Climbing Houston Center
11:47AM 29.3836 -95.2656 205° Southwest 263 303 16,000 2,710 Climbing Houston Center
11:48AM 29.3172 -95.3014 205° Southwest 263 303 18,300 2,032 Climbing Houston Center
11:49AM 29.2497 -95.3372 205° Southwest 267 307 20,200 1,742 Climbing Houston Center
11:50AM 29.1656 -95.3994 213° Southwest 300 345 21,900 1,403 Climbing Houston Center
11:51AM 29.0975 -95.4661 221° Southwest 319 367 23,100 1,008 Climbing Houston Center
11:52AM 29.0203 -95.5386 219° Southwest 358 412 24,000 1,392 Climbing Houston Center
11:53AM 28.9408 -95.6153 220° Southwest 372 428 26,000 1,742 Climbing Houston Center
11:54AM 28.8606 -95.6906 219° Southwest 371 427 27,600 1,887 Climbing Houston Center
11:55AM 28.7811 -95.7642 219° Southwest 369 425 29,900 1,984 Climbing Houston Center
11:56AM 28.6911 -95.8500 220° Southwest 357 411 31,700 1,548 Climbing Houston Center
11:57AM 28.6169 -95.9203 220° Southwest 349 402 33,100 1,113 Climbing Houston Center
11:58AM 28.5450 -95.9878 220° Southwest 347 399 34,000 1,161 Climbing Houston Center
11:59AM 28.4711 -96.0564 219° Southwest 344 396 35,500 968 Climbing Houston Center
12:00PM 28.4008 -96.1233 220° Southwest 332 382 36,000 242 Climbing Houston Center
12:01PM 28.3147 -96.2028 219° Southwest 330 380 36,000  Level Houston Center
12:02PM 28.2431 -96.2697 219° Southwest 332 382 36,000  Level Houston Center
12:03PM 28.1708 -96.3375 220° Southwest 337 388 36,000  Level Houston Center
12:04PM 28.0983 -96.4033 219° Southwest 334 384 36,000  Level Houston Center
12:05PM 28.0250 -96.4722 220° Southwest 339 390 36,000 -435 Level Houston Center
12:07PM 27.9522 -96.5392 219° Southwest 339 390 35,100 -968 Descending Houston Center
12:08PM 27.8642 -96.6211 219° Southwest 340 391 34,000 -1,016 Descending Houston Center
12:09PM 27.7886 -96.6894 219° Southwest 346 398 33,000 -968 Descending Houston Center
12:10PM 27.7139 -96.7589 219° Southwest 347 399 32,000 -912 Descending Houston Center
12:11PM 27.6386 -96.8267 219° Southwest 346 398 31,100 -912 Descending Houston Center
12:12PM 27.5636 -96.8967 220° Southwest 348 400 30,100 -919 Descending Houston Center
12:13PM 27.4867 -96.9664 219° Southwest 353 406 29,200 -1,065 Descending Houston Center
12:14PM 27.4039 -97.0417 219° Southwest 362 417 27,900 -1,355 Descending Houston Center
12:16PM 27.2400 -97.1911 219° Southwest 345 397 25,000 -1,677 Descending Houston Center
12:17PM 27.1569 -97.2497 212° Southwest 351 404 22,700 -2,129 Descending Houston Center
12:18PM 27.0753 -97.2975 208° Southwest 336 387 20,600 -2,016 Descending Houston Center
12:19PM 26.9942 -97.3453 208° Southwest 330 380 18,500 -2,114 Descending Houston Center
12:20PM 26.9192 -97.3864 206° Southwest 336 387 16,900 -2,419 Descending Houston Center
12:20PM 26.8911 -97.3889 185° South 336 387 16,000 -2,509 Descending Houston Center
12:21PM 26.8311 -97.3889 180° South 341 392 14,600 -2,323 Descending Houston Center
12:21PM 26.7950 -97.3875 178° South 344 396 13,600 -1,970 Descending Houston Center
12:22PM 26.7300 -97.3886 181° South 340 391 12,400 -1,548 Descending Houston Center
12:22PM 26.6975 -97.3886 180° South 325 374 12,000 -1,082 Descending Houston Center
12:23PM 26.6458 -97.3886 180° South 301 346 11,300 -1,161 Descending Houston Center
12:23PM 26.6178 -97.3900 183° South 291 335 10,800 -1,855 Descending Houston Center
12:24PM 26.5767 -97.3933 184° South 276 318 9,600 -1,645 Descending Houston Center
12:24PM 26.5350 -97.3950 182° South 277 319 9,100 -985 Descending Houston Center
12:25PM 26.4847 -97.3989 184° South 282 325 8,500 -871 Descending Houston Center
12:25PM 26.4531 -97.3994 181° South 291 335 8,200 -900 Descending Houston Center
12:26PM 26.3989 -97.4036 184° South 298 343 7,600 -1,355 Descending Houston Center
12:26PM 26.3669 -97.4250 211° Southwest 299 344 6,800 -1,770 Descending Houston Center
12:27PM 26.3264 -97.4508 210° Southwest 302 348 5,800 -1,839 Descending Houston Center
12:27PM 26.2944 -97.4744 214° Southwest 304 350 4,900 -1,745 Descending Houston Center
12:28PM 26.2600 -97.4994 213° Southwest 306 352 4,200 -1,524 Descending Houston Center
12:28PM 26.2242 -97.5294 217° Southwest 307 353 3,300 -885 Descending Houston Center
12:29PM 26.1925 -97.5553 216° Southwest 300 345 3,300 -97 Level Houston Center
12:29PM 26.1586 -97.5817 215° Southwest 269 310 3,200 -197 Descending Houston Center
12:30PM 26.1453 -97.6036 236° Southwest 229 264 3,100 -774 Descending Houston Center
12:30PM 26.1431 -97.6342 265° West 183 211 2,400 -1,075 Descending Houston Center
12:31PM 26.1467 -97.6547 281° West 159 183 1,900 -1,161 Descending Houston Center
12:31PM 26.1675 -97.6592 349° North 135 155 1,200 -1,100 Descending Houston Center
12:32PM 26.1831 -97.6614 353° North 123 142 800 -871 Descending Houston Center
12:32PM 26.2014 -97.6594 North 124 143 300 -857 Descending Houston Center

Login

Don't have an account? Register now (free) for customized features, flight alerts, and more!